Time;durP1;ratioP1;P1;durP2;ratioP2;P2;SDS_P1;SDS_P2;PMS_P1;PMS_P2;Temp;Humidity;BMP_temperature;BMP_pressure;BME280_temperature;BME280_humidity;BME280_pressure;Samples;Min_cycle;Max_cycle;Signal;HPM_P1;HPM_P2
2022/03/04 00:00:43;;;;;;;5.05;2.63;;;-0.10;99.90;;;;;;4876366;29;20395;-85
2022/03/04 00:03:11;;;;;;;6.20;3.00;;;-0.10;99.90;;;;;;4877696;29;20407;-85
2022/03/04 00:05:40;;;;;;;6.20;3.08;;;-0.30;99.90;;;;;;4892341;29;20481;-86
2022/03/04 00:08:39;;;;;;;6.13;2.83;;;-0.10;99.90;;;;;;4878115;29;20998;-85
2022/03/04 00:11:08;;;;;;;6.40;3.00;;;-0.20;99.90;;;;;;4876174;29;20459;-85
2022/03/04 00:13:36;;;;;;;5.70;2.55;;;-0.30;99.90;;;;;;4892239;29;20402;-85
2022/03/04 00:20:31;;;;;;;5.68;2.63;;;-0.60;99.90;;;;;;4877763;29;20420;-85
2022/03/04 00:22:58;;;;;;;6.35;2.33;;;-0.50;99.90;;;;;;4876693;29;20815;-84
2022/03/04 00:25:27;;;;;;;6.43;2.63;;;-0.70;99.90;;;;;;4876611;29;20418;-84
2022/03/04 00:27:54;;;;;;;6.13;2.83;;;-0.70;99.90;;;;;;4877842;29;20399;-85
2022/03/04 00:34:08;;;;;;;6.32;2.58;;;-0.70;99.90;;;;;;4876016;29;20443;-85
2022/03/04 00:36:38;;;;;;;5.00;2.55;;;-0.60;99.90;;;;;;4876614;29;20403;-85
2022/03/04 00:47:37;;;;;;;5.85;2.90;;;-0.70;99.90;;;;;;4877730;29;20817;-85
2022/03/04 00:50:08;;;;;;;5.15;2.65;;;-0.70;99.90;;;;;;4876549;29;20403;-85
2022/03/04 00:52:36;;;;;;;6.13;2.83;;;-0.60;99.90;;;;;;4861088;29;20436;-85
2022/03/04 00:55:04;;;;;;;6.10;2.58;;;-0.70;99.90;;;;;;4876485;29;20752;-85
2022/03/04 00:57:32;;;;;;;5.45;2.38;;;-0.70;99.90;;;;;;4876231;29;20407;-84
2022/03/04 01:00:00;;;;;;;5.13;2.20;;;-0.80;99.90;;;;;;4876647;29;20399;-85
2022/03/04 01:02:39;;;;;;;5.15;2.38;;;-0.90;99.90;;;;;;4877484;29;20406;-84
2022/03/04 01:05:08;;;;;;;5.32;2.65;;;-0.90;99.90;;;;;;4876350;29;20442;-85
2022/03/04 01:07:36;;;;;;;5.53;2.47;;;-0.80;99.90;;;;;;4876317;29;20403;-85
2022/03/04 01:10:04;;;;;;;5.32;2.50;;;-0.80;99.90;;;;;;4876147;29;20897;-85
2022/03/04 01:12:34;;;;;;;5.63;2.22;;;-0.80;99.90;;;;;;4876916;29;20409;-84
2022/03/04 01:23:36;;;;;;;4.97;2.15;;;-0.90;99.90;;;;;;4843884;29;20381;-84
2022/03/04 01:26:04;;;;;;;5.05;2.55;;;-1.10;99.90;;;;;;4842415;29;20917;-84
2022/03/04 01:28:32;;;;;;;6.68;2.47;;;-1.00;99.90;;;;;;4857697;29;20406;-84
2022/03/04 01:31:00;;;;;;;5.43;2.50;;;-0.90;99.90;;;;;;4842334;29;20415;-85
2022/03/04 01:33:29;;;;;;;4.85;2.35;;;-1.00;99.90;;;;;;4857603;29;20778;-84
2022/03/04 01:35:56;;;;;;;5.50;2.63;;;-1.00;99.90;;;;;;4842436;29;20411;-85
2022/03/04 01:38:24;;;;;;;4.73;2.70;;;-1.00;99.90;;;;;;4843345;29;20762;-85
2022/03/04 01:40:58;;;;;;;6.27;2.33;;;-1.00;99.90;;;;;;4843441;29;20407;-84
2022/03/04 01:43:44;;;;;;;6.10;2.50;;;-1.00;99.90;;;;;;4841270;29;20461;-85
2022/03/04 01:46:18;;;;;;;4.93;2.40;;;-1.00;99.90;;;;;;4842142;29;20970;-85
2022/03/04 01:48:47;;;;;;;5.95;2.70;;;-1.00;99.90;;;;;;4857326;29;20882;-85
2022/03/04 01:51:15;;;;;;;5.63;2.70;;;-1.00;99.90;;;;;;4841996;29;20403;-84
2022/03/04 01:53:43;;;;;;;5.28;2.35;;;-1.00;99.90;;;;;;4843209;29;20790;-85
2022/03/04 01:56:12;;;;;;;5.15;2.40;;;-1.10;99.90;;;;;;4857323;29;20413;-85
2022/03/04 01:58:41;;;;;;;4.10;2.45;;;-1.10;99.90;;;;;;4841893;29;20411;-85
2022/03/04 02:01:10;;;;;;;5.57;2.42;;;-1.10;99.90;;;;;;4841723;29;20413;-85
2022/03/04 02:03:38;;;;;;;4.47;2.50;;;-1.10;99.90;;;;;;4857038;29;20878;-85
2022/03/04 02:06:06;;;;;;;4.93;2.45;;;-1.10;99.90;;;;;;4841725;29;20407;-85
2022/03/04 02:08:34;;;;;;;5.07;2.33;;;-1.10;99.90;;;;;;4841636;29;20777;-85
2022/03/04 02:11:03;;;;;;;5.25;2.30;;;-1.10;99.90;;;;;;4841769;29;20410;-85
2022/03/04 02:13:31;;;;;;;6.35;2.70;;;-1.00;99.90;;;;;;4841761;29;20402;-85
2022/03/04 02:15:59;;;;;;;4.55;2.47;;;-1.00;99.90;;;;;;4841578;29;20414;-85
2022/03/04 02:18:27;;;;;;;5.38;2.45;;;-1.00;99.90;;;;;;4841475;29;20434;-85
2022/03/04 02:21:13;;;;;;;5.80;2.90;;;-1.00;99.90;;;;;;4842920;29;20414;-85
2022/03/04 02:23:41;;;;;;;6.00;2.38;;;-1.00;99.90;;;;;;4840934;29;20475;-85
2022/03/04 02:26:09;;;;;;;4.32;2.40;;;-1.10;99.90;;;;;;4825560;29;20446;-84
2022/03/04 02:28:37;;;;;;;3.92;2.00;;;-1.00;99.90;;;;;;4841371;29;20494;-85
2022/03/04 02:31:05;;;;;;;5.73;2.40;;;-1.10;99.90;;;;;;4842529;29;20489;-85
2022/03/04 02:33:33;;;;;;;5.75;2.45;;;-1.10;99.90;;;;;;4841307;29;20410;-85
2022/03/04 02:36:01;;;;;;;5.45;2.50;;;-1.10;99.90;;;;;;4826115;29;20407;-84
2022/03/04 02:38:29;;;;;;;7.57;2.80;;;-1.10;99.90;;;;;;4826027;29;20933;-85
2022/03/04 02:40:57;;;;;;;6.78;2.65;;;-1.10;99.90;;;;;;4841400;29;20415;-85
2022/03/04 02:43:25;;;;;;;6.20;2.80;;;-1.10;99.90;;;;;;4841092;29;20956;-85
2022/03/04 02:45:53;;;;;;;5.73;2.47;;;-1.10;99.90;;;;;;4825858;29;20926;-85
2022/03/04 02:49:11;;;;;;;6.03;2.35;;;-1.10;99.90;;;;;;4825888;29;20482;-85
2022/03/04 02:51:40;;;;;;;4.03;2.53;;;-1.10;99.90;;;;;;4840803;29;20498;-85
2022/03/04 02:54:08;;;;;;;4.32;2.55;;;-1.10;99.90;;;;;;4825960;29;20779;-85
2022/03/04 02:56:36;;;;;;;4.18;2.40;;;-1.10;99.90;;;;;;4840886;29;20422;-85
2022/03/04 02:59:04;;;;;;;5.75;2.97;;;-1.10;99.90;;;;;;4842334;29;20498;-85
2022/03/04 03:01:32;;;;;;;4.72;2.30;;;-1.10;99.90;;;;;;4825849;29;20835;-85
2022/03/04 03:04:00;;;;;;;6.85;2.42;;;-1.10;99.90;;;;;;4840942;29;20796;-85
2022/03/04 03:06:29;;;;;;;6.18;1.95;;;-1.00;99.90;;;;;;4833471;29;20492;-85
2022/03/04 03:09:37;;;;;;;6.63;2.58;;;-1.00;99.90;;;;;;4841124;29;20454;-84
2022/03/04 03:12:05;;;;;;;5.97;2.50;;;-1.00;99.90;;;;;;4822619;29;20439;-85
2022/03/04 03:14:34;;;;;;;5.97;2.40;;;-1.00;99.90;;;;;;4822366;29;20424;-84
2022/03/04 03:17:02;;;;;;;5.72;2.25;;;-1.00;99.90;;;;;;4837585;29;20424;-85
2022/03/04 03:19:30;;;;;;;6.47;2.28;;;-1.00;99.90;;;;;;4837528;29;20507;-84
2022/03/04 03:26:04;;;;;;;5.85;2.20;;;-1.00;99.90;;;;;;4864068;29;20530;-84
2022/03/04 03:28:32;;;;;;;4.60;2.15;;;-1.00;99.90;;;;;;4861965;29;20490;-85
2022/03/04 03:33:26;;;;;;;4.50;2.20;;;-1.00;99.90;;;;;;4877208;29;20414;-85
2022/03/04 03:35:54;;;;;;;6.28;2.50;;;-0.90;99.90;;;;;;4891941;29;20837;-84
2022/03/04 03:38:57;;;;;;;4.75;2.30;;;-1.00;99.90;;;;;;4877132;29;20455;-84
2022/03/04 03:41:25;;;;;;;4.88;1.90;;;-1.00;99.90;;;;;;4859086;29;20407;-84
2022/03/04 03:43:53;;;;;;;4.82;2.15;;;-1.00;99.90;;;;;;4873884;29;20409;-84
2022/03/04 03:46:50;;;;;;;5.15;2.42;;;-1.00;99.90;;;;;;4860097;29;20515;-84
2022/03/04 03:49:43;;;;;;;5.10;2.40;;;-1.00;99.90;;;;;;4876607;29;20417;-84
2022/03/04 03:52:11;;;;;;;5.05;2.40;;;-1.00;99.90;;;;;;4877963;29;20491;-85
2022/03/04 03:54:38;;;;;;;4.57;2.08;;;-1.10;99.90;;;;;;4876993;29;20411;-84
2022/03/04 03:57:10;;;;;;;5.03;2.53;;;-1.00;99.90;;;;;;4878031;29;20446;-85
2022/03/04 04:00:01;;;;;;;4.97;2.50;;;-1.00;99.90;;;;;;4868529;29;20435;-84
2022/03/04 04:02:38;;;;;;;6.10;2.70;;;-1.00;99.90;;;;;;4872589;29;20393;-84
2022/03/04 04:05:07;;;;;;;5.20;2.25;;;-1.00;99.90;;;;;;4858396;29;20481;-85
2022/03/04 04:07:35;;;;;;;3.90;2.20;;;-1.00;99.90;;;;;;4876563;29;20456;-85
2022/03/04 04:10:04;;;;;;;5.13;2.22;;;-1.00;99.90;;;;;;4876823;29;20419;-84
2022/03/04 04:12:31;;;;;;;5.30;2.50;;;-1.10;99.90;;;;;;4876698;29;20759;-84
2022/03/04 04:14:59;;;;;;;4.67;2.30;;;-0.90;99.90;;;;;;4876632;29;20418;-85
2022/03/04 04:17:27;;;;;;;4.55;2.00;;;-0.90;99.90;;;;;;4877910;29;20455;-85
2022/03/04 04:24:23;;;;;;;4.10;1.95;;;-1.00;99.90;;;;;;4875788;29;20427;-84
2022/03/04 04:36:28;;;;;;;5.13;2.00;;;-1.10;99.90;;;;;;4856006;29;20380;-84
2022/03/04 04:38:56;;;;;;;4.18;1.80;;;-1.00;99.90;;;;;;4856831;29;20444;-85
2022/03/04 04:41:24;;;;;;;3.88;1.80;;;-1.00;99.90;;;;;;4841635;29;20405;-84
2022/03/04 04:43:52;;;;;;;3.97;1.60;;;-1.00;99.90;;;;;;4856912;29;20769;-85
2022/03/04 04:46:26;;;;;;;3.80;1.60;;;-1.10;99.90;;;;;;4841398;29;21007;-84
2022/03/04 04:48:59;;;;;;;3.80;1.47;;;-1.00;99.90;;;;;;4859971;29;20434;-84
2022/03/04 04:51:27;;;;;;;2.83;1.40;;;-1.10;99.90;;;;;;4830124;29;20476;-85
2022/03/04 04:53:55;;;;;;;2.20;1.15;;;-1.00;99.90;;;;;;4860401;29;20816;-85
2022/03/04 04:56:22;;;;;;;2.28;1.10;;;-1.10;99.90;;;;;;4844996;29;20860;-85
2022/03/04 04:58:50;;;;;;;3.03;1.10;;;-1.10;99.90;;;;;;4861373;29;20927;-85
2022/03/04 05:01:28;;;;;;;2.47;1.17;;;-1.10;99.90;;;;;;4855777;29;20422;-84
2022/03/04 05:03:56;;;;;;;2.60;1.10;;;-1.10;99.90;;;;;;4861293;29;20416;-85
2022/03/04 05:06:27;;;;;;;1.73;1.08;;;-1.10;99.90;;;;;;4861253;29;20423;-85
2022/03/04 05:17:38;;;;;;;2.22;1.00;;;-1.10;99.90;;;;;;4862199;29;20464;-85
2022/03/04 05:20:55;;;;;;;1.83;0.90;;;-1.10;99.90;;;;;;4861118;29;20958;-85
2022/03/04 05:27:36;;;;;;;1.45;0.85;;;-1.10;99.90;;;;;;4868994;29;20406;-84
2022/03/04 05:30:04;;;;;;;2.17;0.90;;;-1.10;99.90;;;;;;4895084;29;20496;-85
2022/03/04 05:32:32;;;;;;;2.10;1.00;;;-1.10;99.90;;;;;;4879504;29;20411;-85
2022/03/04 05:35:00;;;;;;;2.10;0.80;;;-1.10;99.90;;;;;;4864072;29;20510;-85
2022/03/04 05:37:27;;;;;;;2.75;0.85;;;-1.10;99.90;;;;;;4894224;29;20411;-85
2022/03/04 05:39:55;;;;;;;2.33;0.80;;;-1.10;99.90;;;;;;4879302;29;20429;-86
2022/03/04 05:42:24;;;;;;;2.22;0.82;;;-1.10;99.90;;;;;;4894687;29;20409;-85
2022/03/04 05:44:51;;;;;;;2.35;0.90;;;-1.10;99.90;;;;;;4880307;29;20819;-85
2022/03/04 05:47:19;;;;;;;1.45;0.75;;;-1.10;99.90;;;;;;4894605;29;20909;-85
2022/03/04 05:49:47;;;;;;;3.20;1.00;;;-1.10;99.90;;;;;;4879049;29;20415;-85
2022/03/04 05:52:15;;;;;;;1.88;1.00;;;-1.10;99.90;;;;;;4879299;29;20421;-85
2022/03/04 05:54:43;;;;;;;1.80;0.85;;;-1.00;99.90;;;;;;4893724;29;20521;-85
2022/03/04 05:57:10;;;;;;;1.50;0.70;;;-1.00;99.90;;;;;;4894165;29;20411;-84
2022/03/04 06:00:18;;;;;;;2.50;0.95;;;-1.00;99.90;;;;;;4878554;29;20463;-84
2022/03/04 06:02:46;;;;;;;1.70;0.70;;;-1.00;99.90;;;;;;4867442;29;20419;-85
2022/03/04 06:05:14;;;;;;;2.45;0.70;;;-1.00;99.90;;;;;;4861427;29;20453;-85
2022/03/04 06:07:48;;;;;;;1.90;0.70;;;-1.00;99.90;;;;;;4861543;29;20971;-85
2022/03/04 06:10:16;;;;;;;1.70;0.88;;;-1.00;99.90;;;;;;4861304;29;20823;-85
2022/03/04 06:12:44;;;;;;;1.25;0.80;;;-1.00;99.90;;;;;;4860188;29;20465;-85
2022/03/04 06:15:11;;;;;;;2.70;0.70;;;-1.00;99.90;;;;;;4875500;29;20757;-85
2022/03/04 06:21:52;;;;;;;2.05;0.80;;;-1.10;99.90;;;;;;4879058;29;20829;-85
2022/03/04 06:24:20;;;;;;;2.00;0.80;;;-1.10;99.90;;;;;;4879752;29;20398;-85
2022/03/04 06:26:47;;;;;;;1.95;0.80;;;-1.00;99.90;;;;;;4878155;29;20470;-85
2022/03/04 06:29:15;;;;;;;1.83;0.70;;;-1.00;99.90;;;;;;4879725;29;20403;-85
2022/03/04 06:31:46;;;;;;;1.60;0.60;;;-1.00;99.90;;;;;;4863513;29;20455;-85
2022/03/04 06:42:18;;;;;;;1.80;0.82;;;-0.90;99.90;;;;;;4879288;29;20401;-83
2022/03/04 06:44:46;;;;;;;1.25;0.60;;;-0.90;99.90;;;;;;4878425;29;20402;-83
2022/03/04 06:47:14;;;;;;;1.50;0.60;;;-0.90;99.90;;;;;;4879400;29;20407;-85
2022/03/04 06:49:42;;;;;;;1.17;0.60;;;-0.90;99.90;;;;;;4879263;29;20399;-84
2022/03/04 06:52:10;;;;;;;1.60;0.70;;;-1.00;99.90;;;;;;4893627;29;20411;-84
2022/03/04 06:54:48;;;;;;;1.25;0.60;;;-0.90;99.90;;;;;;4893534;29;20790;-85
2022/03/04 06:57:41;;;;;;;1.02;0.60;;;-0.90;99.90;;;;;;4878258;29;20394;-84
2022/03/04 07:00:10;;;;;;;1.27;0.60;;;-0.90;99.90;;;;;;4877793;29;20415;-85
2022/03/04 07:02:39;;;;;;;1.58;0.50;;;-0.90;99.90;;;;;;4893340;29;20451;-85
2022/03/04 07:09:49;;;;;;;1.40;0.40;;;-0.90;99.90;;;;;;4878822;29;20465;-85
2022/03/04 07:12:18;;;;;;;1.40;0.50;;;-0.90;99.90;;;;;;4892892;29;20407;-85
2022/03/04 07:14:46;;;;;;;1.95;0.50;;;-0.80;99.90;;;;;;4877747;29;20875;-85
2022/03/04 07:17:14;;;;;;;1.33;0.60;;;-0.80;99.90;;;;;;4878748;29;20398;-85
2022/03/04 07:19:42;;;;;;;1.10;0.50;;;-0.80;99.90;;;;;;4877760;29;20410;-85
2022/03/04 07:26:22;;;;;;;1.00;0.50;;;-0.70;99.90;;;;;;4878202;29;20952;-85
2022/03/04 07:28:50;;;;;;;1.10;0.60;;;-0.70;99.90;;;;;;4877153;29;20422;-85
2022/03/04 07:31:18;;;;;;;1.20;0.50;;;-0.70;99.90;;;;;;4892825;29;20419;-85
2022/03/04 07:33:46;;;;;;;1.33;0.45;;;-0.70;99.90;;;;;;4877274;29;20415;-85
2022/03/04 07:36:14;;;;;;;2.00;0.57;;;-0.70;99.90;;;;;;4878437;29;20471;-84
2022/03/04 07:38:44;;;;;;;0.73;0.40;;;-0.60;99.90;;;;;;4877292;29;20403;-85
2022/03/04 07:41:12;;;;;;;2.05;0.60;;;-0.70;99.90;;;;;;4877305;29;20881;-84
2022/03/04 07:43:40;;;;;;;1.40;0.60;;;-0.70;99.90;;;;;;4892599;29;20403;-85
2022/03/04 07:46:13;;;;;;;2.50;0.68;;;-0.70;99.90;;;;;;4877105;29;20497;-85
2022/03/04 07:48:41;;;;;;;2.15;0.68;;;-0.60;99.90;;;;;;4876996;29;20441;-85
2022/03/04 07:51:09;;;;;;;1.90;0.57;;;-0.60;99.90;;;;;;4877046;29;20842;-85
2022/03/04 07:53:36;;;;;;;1.63;0.60;;;-0.60;99.90;;;;;;4877025;29;20399;-85
2022/03/04 07:56:04;;;;;;;1.15;0.50;;;-0.60;99.90;;;;;;4892496;29;20406;-85
2022/03/04 07:58:31;;;;;;;1.20;0.50;;;-0.50;99.90;;;;;;4878168;29;20768;-85
2022/03/04 08:00:59;;;;;;;0.90;0.50;;;-0.50;99.90;;;;;;4861788;29;20483;-85
2022/03/04 08:03:46;;;;;;;1.43;0.60;;;-0.50;99.90;;;;;;4892517;29;20411;-86
2022/03/04 08:06:15;;;;;;;1.48;0.50;;;-0.50;99.90;;;;;;4861568;29;20415;-86
2022/03/04 08:08:42;;;;;;;1.85;0.70;;;-0.50;99.90;;;;;;4876858;29;20498;-85
2022/03/04 08:11:10;;;;;;;2.10;0.57;;;-0.50;99.90;;;;;;4861340;29;20441;-85
2022/03/04 08:13:37;;;;;;;1.27;0.70;;;-0.50;99.90;;;;;;4876769;29;20419;-85
2022/03/04 08:16:05;;;;;;;0.90;0.57;;;-0.50;99.90;;;;;;4878035;29;20407;-86
2022/03/04 08:18:32;;;;;;;2.45;0.90;;;-0.50;99.90;;;;;;4877952;29;20409;-84
2022/03/04 08:21:03;;;;;;;1.30;0.50;;;-0.50;99.90;;;;;;4876723;29;20407;-85
2022/03/04 08:23:30;;;;;;;0.85;0.68;;;-0.50;99.90;;;;;;4881626;29;20446;-85
2022/03/04 08:26:03;;;;;;;1.20;0.75;;;-0.50;99.90;;;;;;4882907;29;20478;-85
2022/03/04 08:28:33;;;;;;;1.60;0.60;;;-0.50;99.90;;;;;;4882747;29;20905;-85
2022/03/04 08:31:10;;;;;;;1.52;0.80;;;-0.50;99.90;;;;;;4882943;29;20406;-84
2022/03/04 08:33:40;;;;;;;1.30;0.95;;;-0.50;99.90;;;;;;4884182;29;20399;-83
2022/03/04 08:36:09;;;;;;;2.73;0.80;;;-0.50;99.90;;;;;;4867281;29;20827;-83
2022/03/04 08:38:37;;;;;;;0.70;0.70;;;-0.50;99.90;;;;;;4883987;29;20402;-83
2022/03/04 08:41:05;;;;;;;1.52;0.70;;;-0.50;99.90;;;;;;4884264;29;20957;-85
2022/03/04 08:43:34;;;;;;;2.30;0.80;;;-0.50;99.90;;;;;;4867330;29;20945;-83
2022/03/04 08:46:03;;;;;;;1.42;0.73;;;-0.50;99.90;;;;;;4867539;29;20415;-85
2022/03/04 08:48:31;;;;;;;1.48;0.80;;;-0.50;99.90;;;;;;4882772;29;20455;-83
2022/03/04 08:50:59;;;;;;;2.10;0.73;;;-0.40;99.90;;;;;;4898213;29;20908;-83
2022/03/04 08:53:27;;;;;;;0.70;0.60;;;-0.40;99.90;;;;;;4882564;29;20419;-85
2022/03/04 08:55:55;;;;;;;0.70;0.50;;;-0.50;99.90;;;;;;4882714;29;20458;-86
2022/03/04 08:58:24;;;;;;;1.80;0.45;;;-0.50;99.90;;;;;;4898215;29;20411;-85
2022/03/04 09:00:51;;;;;;;0.60;0.50;;;-0.50;99.90;;;;;;4882672;29;20410;-83
2022/03/04 09:03:19;;;;;;;0.73;0.50;;;-0.50;99.90;;;;;;4882526;29;20403;-84
2022/03/04 09:05:47;;;;;;;1.45;0.70;;;-0.50;99.90;;;;;;4883847;29;20418;-84
2022/03/04 09:08:15;;;;;;;2.78;0.70;;;-0.50;99.90;;;;;;4883767;29;20430;-83
2022/03/04 09:10:42;;;;;;;0.90;0.60;;;-0.50;99.90;;;;;;4882514;29;20815;-84
2022/03/04 09:13:10;;;;;;;1.48;0.70;;;-0.50;99.90;;;;;;4882610;29;20514;-84
2022/03/04 09:15:38;;;;;;;1.38;0.70;;;-0.50;99.90;;;;;;4882640;29;20502;-83
2022/03/04 09:18:06;;;;;;;1.15;0.60;;;-0.50;99.90;;;;;;4883699;29;20806;-84
2022/03/04 09:20:34;;;;;;;0.70;0.50;;;-0.40;99.90;;;;;;4882422;29;20417;-83
2022/03/04 09:23:02;;;;;;;1.35;0.57;;;-0.40;99.90;;;;;;4898151;29;20480;-84
2022/03/04 09:25:30;;;;;;;1.52;0.60;;;-0.40;99.90;;;;;;4882475;29;20774;-84
2022/03/04 09:27:57;;;;;;;1.92;0.43;;;-0.40;99.90;;;;;;4883526;29;20415;-84
2022/03/04 09:30:26;;;;;;;1.40;0.30;;;-0.40;99.90;;;;;;4883632;29;20438;-83
2022/03/04 09:32:53;;;;;;;1.13;0.32;;;-0.40;99.90;;;;;;4882524;29;20569;-83
2022/03/04 09:35:21;;;;;;;2.08;0.40;;;-0.40;99.90;;;;;;4880995;29;20424;-83
2022/03/04 09:37:49;;;;;;;1.13;0.40;;;-0.40;99.90;;;;;;4879695;29;20403;-84
2022/03/04 09:40:17;;;;;;;0.47;0.30;;;-0.40;99.90;;;;;;4879517;29;20395;-84
2022/03/04 09:42:44;;;;;;;1.20;0.30;;;-0.40;99.90;;;;;;4864350;29;20407;-84
2022/03/04 09:45:12;;;;;;;1.90;0.50;;;-0.40;99.90;;;;;;4879723;29;20399;-83
2022/03/04 09:47:40;;;;;;;0.85;0.32;;;-0.40;99.90;;;;;;4879354;29;20509;-84
2022/03/04 09:50:09;;;;;;;3.78;0.70;;;-0.30;99.90;;;;;;4879383;29;20415;-85
2022/03/04 09:52:39;;;;;;;1.80;0.50;;;-0.30;99.90;;;;;;4879055;29;20411;-83
2022/03/04 09:55:07;;;;;;;0.90;0.50;;;-0.30;99.90;;;;;;4864059;29;20425;-83
2022/03/04 09:57:36;;;;;;;1.75;0.50;;;-0.30;99.90;;;;;;4879300;29;20427;-83
2022/03/04 10:00:04;;;;;;;1.80;0.45;;;-0.30;99.90;;;;;;4880186;29;20413;-83
2022/03/04 10:02:39;;;;;;;1.63;0.43;;;-0.30;99.90;;;;;;4879075;29;20462;-84
2022/03/04 10:05:08;;;;;;;1.90;0.47;;;-0.30;99.90;;;;;;4878950;29;20415;-84
2022/03/04 10:07:45;;;;;;;2.03;0.45;;;-0.30;99.90;;;;;;4879131;29;20419;-86
2022/03/04 10:10:22;;;;;;;1.40;0.40;;;-0.30;99.90;;;;;;4879256;29;20482;-83
2022/03/04 10:12:55;;;;;;;1.40;0.43;;;-0.30;99.90;;;;;;4879126;29;20929;-84
2022/03/04 10:15:24;;;;;;;1.48;0.40;;;-0.30;99.90;;;;;;4863686;29;20483;-83
2022/03/04 10:18:01;;;;;;;0.90;0.40;;;-0.30;99.90;;;;;;4879948;29;20463;-83
2022/03/04 10:20:34;;;;;;;1.52;0.43;;;-0.30;99.90;;;;;;4879913;29;20403;-85
2022/03/04 10:23:17;;;;;;;1.60;0.50;;;-0.30;99.90;;;;;;4878662;29;20415;-84
2022/03/04 10:25:56;;;;;;;2.17;0.40;;;-0.30;99.90;;;;;;4863171;29;20414;-85
2022/03/04 10:28:26;;;;;;;2.20;0.50;;;-0.40;99.90;;;;;;4863067;29;20735;-85
2022/03/04 10:30:57;;;;;;;2.00;0.50;;;-0.40;99.90;;;;;;4879968;29;20462;-85
2022/03/04 10:33:44;;;;;;;1.73;0.60;;;-0.40;99.90;;;;;;4878757;29;20443;-84
2022/03/04 10:37:07;;;;;;;1.45;0.50;;;-0.30;99.90;;;;;;4894188;29;20404;-85
2022/03/04 10:39:56;;;;;;;1.30;0.40;;;-0.40;99.90;;;;;;4878657;29;20447;-85
2022/03/04 10:42:47;;;;;;;2.88;0.50;;;-0.30;99.90;;;;;;4878687;29;20778;-83
2022/03/04 10:45:30;;;;;;;2.08;0.70;;;-0.30;99.90;;;;;;4877708;29;20482;-83
2022/03/04 10:48:08;;;;;;;1.30;0.77;;;-0.40;99.90;;;;;;4879388;29;20501;-85
2022/03/04 10:50:50;;;;;;;1.67;0.43;;;-0.40;99.90;;;;;;4878075;29;20978;-83
2022/03/04 10:53:24;;;;;;;1.33;0.40;;;-0.40;99.90;;;;;;4878241;29;20427;-84
2022/03/04 10:56:07;;;;;;;1.80;0.50;;;-0.40;99.90;;;;;;4878332;29;20439;-84
2022/03/04 10:59:12;;;;;;;2.35;0.50;;;-0.30;99.90;;;;;;4878480;29;20407;-85
2022/03/04 11:02:46;;;;;;;1.35;0.40;;;-0.30;99.90;;;;;;4878148;29;20407;-83
2022/03/04 11:06:07;;;;;;;;;;;;;;;;;;;;;
2022/03/04 11:09:29;;;;;;;2.07;0.60;;;-0.30;99.90;;;;;;4877636;29;20410;-83
2022/03/04 11:11:57;;;;;;;1.83;0.40;;;-0.30;99.90;;;;;;4862443;29;20510;-83
2022/03/04 11:14:25;;;;;;;1.65;0.38;;;-0.30;99.90;;;;;;4877649;29;20470;-83
2022/03/04 11:16:55;;;;;;;1.92;0.40;;;-0.20;99.90;;;;;;4877799;29;20451;-83
2022/03/04 11:20:06;;;;;;;1.58;0.43;;;-0.20;99.90;;;;;;4878027;29;20474;-84
2022/03/04 11:22:40;;;;;;;0.60;0.30;;;-0.20;99.90;;;;;;4877641;29;20437;-85
2022/03/04 11:25:13;;;;;;;1.83;0.40;;;-0.20;99.90;;;;;;4862221;29;20419;-84
2022/03/04 11:27:43;;;;;;;1.73;0.40;;;-0.20;99.90;;;;;;4877340;29;20782;-83
2022/03/04 11:30:30;;;;;;;1.02;0.32;;;-0.10;99.90;;;;;;4877580;29;20426;-84
2022/03/04 11:33:33;;;;;;;1.30;0.40;;;0.00;99.90;;;;;;4877636;29;20414;-85
2022/03/04 11:36:54;;;;;;;1.45;0.40;;;0.00;99.90;;;;;;4877700;29;20486;-86
2022/03/04 11:39:23;;;;;;;3.63;0.43;;;0.10;99.90;;;;;;4877373;29;20890;-86
2022/03/04 11:41:53;;;;;;;2.07;0.50;;;0.20;99.90;;;;;;4892860;29;20950;-86
2022/03/04 11:44:22;;;;;;;1.50;0.40;;;0.20;99.90;;;;;;4877240;29;20423;-85
2022/03/04 11:47:04;;;;;;;3.73;0.50;;;0.20;99.90;;;;;;4877160;29;20423;-85
2022/03/04 11:49:48;;;;;;;1.42;0.50;;;0.10;99.90;;;;;;4877493;29;20432;-85
2022/03/04 11:52:25;;;;;;;1.30;0.40;;;0.10;99.90;;;;;;4877137;29;20403;-85
2022/03/04 11:55:00;;;;;;;4.18;0.77;;;0.10;99.90;;;;;;4877163;29;20411;-85
2022/03/04 11:57:30;;;;;;;1.90;0.50;;;0.10;99.90;;;;;;4891892;29;20411;-85
2022/03/04 12:00:11;;;;;;;1.63;0.50;;;0.10;99.90;;;;;;4877309;29;20886;-85
2022/03/04 12:02:46;;;;;;;2.95;0.60;;;0.00;99.90;;;;;;4877468;29;20891;-85
2022/03/04 12:05:14;;;;;;;1.60;0.40;;;0.10;99.90;;;;;;4876876;29;20459;-85
2022/03/04 12:07:46;;;;;;;3.38;0.50;;;0.20;99.90;;;;;;4876743;29;20414;-85
2022/03/04 12:10:22;;;;;;;1.92;0.50;;;0.30;99.90;;;;;;4892316;29;20407;-85
2022/03/04 12:13:12;;;;;;;1.20;0.45;;;0.20;99.90;;;;;;4892424;29;20451;-86
2022/03/04 12:15:42;;;;;;;0.90;0.50;;;0.10;99.90;;;;;;4878134;29;20767;-86
2022/03/04 12:18:25;;;;;;;2.00;0.55;;;0.30;99.90;;;;;;4876875;29;20413;-86
2022/03/04 12:20:55;;;;;;;2.73;0.63;;;0.50;99.90;;;;;;4878040;29;20410;-86
2022/03/04 12:23:44;;;;;;;2.30;0.43;;;0.80;99.90;;;;;;4877219;29;20407;-87
2022/03/04 12:26:35;;;;;;;3.40;0.40;;;1.00;99.90;;;;;;4876959;29;20441;-87
2022/03/04 12:29:07;;;;;;;2.05;0.50;;;1.30;99.90;;;;;;4876781;29;20411;-86
2022/03/04 12:31:40;;;;;;;1.92;0.40;;;1.30;99.90;;;;;;4876987;29;20409;-86
2022/03/04 12:34:22;;;;;;;1.42;0.50;;;1.20;99.90;;;;;;4876940;29;20509;-84
2022/03/04 12:36:53;;;;;;;3.13;0.70;;;1.10;99.90;;;;;;4878002;29;20410;-86
2022/03/04 12:39:22;;;;;;;1.65;0.40;;;1.00;99.90;;;;;;4876786;29;20819;-85
2022/03/04 12:41:56;;;;;;;3.50;0.63;;;0.70;99.90;;;;;;4861475;29;20415;-83
2022/03/04 12:44:27;;;;;;;2.47;0.50;;;0.70;99.90;;;;;;4892191;29;20502;-84
2022/03/04 12:46:56;;;;;;;1.70;0.50;;;0.70;99.90;;;;;;4876518;29;20423;-85
2022/03/04 12:49:29;;;;;;;3.20;0.50;;;0.50;99.90;;;;;;4876717;29;20507;-84
2022/03/04 12:51:57;;;;;;;1.73;0.60;;;0.40;99.90;;;;;;4876667;29;20410;-85
2022/03/04 12:54:28;;;;;;;2.10;0.53;;;0.40;99.90;;;;;;4877015;29;20407;-85
2022/03/04 12:57:06;;;;;;;2.15;0.40;;;0.40;99.90;;;;;;4876678;29;20891;-85
2022/03/04 12:59:48;;;;;;;1.55;0.50;;;0.40;99.90;;;;;;4861615;29;20493;-86
2022/03/04 13:02:16;;;;;;;2.47;0.50;;;0.70;99.90;;;;;;4876370;29;20518;-86
2022/03/04 13:04:58;;;;;;;1.77;0.52;;;1.10;99.90;;;;;;4892188;29;20716;-86
2022/03/04 13:07:29;;;;;;;2.30;0.60;;;1.20;99.90;;;;;;4876206;29;20450;-85
2022/03/04 13:09:57;;;;;;;2.35;0.40;;;1.00;99.90;;;;;;4879419;29;20404;-85
2022/03/04 13:12:25;;;;;;;1.38;0.60;;;0.90;99.90;;;;;;4880308;29;20407;-85
2022/03/04 13:14:53;;;;;;;2.13;0.60;;;0.80;99.90;;;;;;4895605;29;20403;-86
2022/03/04 13:17:21;;;;;;;1.98;0.60;;;1.00;99.90;;;;;;4880161;29;20419;-86
2022/03/04 13:19:49;;;;;;;2.70;0.60;;;1.30;99.90;;;;;;4880123;29;20425;-86
2022/03/04 13:22:19;;;;;;;1.23;0.50;;;1.30;99.90;;;;;;4880927;29;20399;-85
2022/03/04 13:24:57;;;;;;;1.10;0.40;;;1.10;99.90;;;;;;4864493;29;20407;-85
2022/03/04 13:27:36;;;;;;;1.38;0.60;;;0.80;99.90;;;;;;4879454;29;20419;-85
2022/03/04 13:30:05;;;;;;;2.60;0.50;;;0.60;99.90;;;;;;4880697;29;20478;-85
2022/03/04 13:32:32;;;;;;;1.00;0.45;;;0.40;99.90;;;;;;4895156;29;20427;-85
2022/03/04 13:35:01;;;;;;;1.30;0.60;;;0.40;99.90;;;;;;4879477;29;20406;-85
2022/03/04 13:37:37;;;;;;;2.10;0.60;;;0.40;99.90;;;;;;4879702;29;20893;-85
2022/03/04 13:40:09;;;;;;;2.05;0.85;;;0.30;99.90;;;;;;4879366;29;20426;-85
2022/03/04 13:42:44;;;;;;;4.30;0.67;;;0.30;99.90;;;;;;4879444;29;20415;-85
2022/03/04 13:45:14;;;;;;;3.03;0.50;;;0.20;99.90;;;;;;4879393;29;20400;-84
2022/03/04 13:47:46;;;;;;;3.55;0.60;;;0.10;99.90;;;;;;4864044;29;20430;-84
2022/03/04 13:50:17;;;;;;;1.53;0.60;;;0.00;99.90;;;;;;4894816;29;20993;-84
2022/03/04 13:52:54;;;;;;;1.40;0.50;;;-0.10;99.90;;;;;;4879308;29;20413;-85
2022/03/04 13:55:43;;;;;;;2.10;0.50;;;-0.20;99.90;;;;;;4879311;29;20415;-84
2022/03/04 13:58:28;;;;;;;2.20;0.50;;;-0.30;99.90;;;;;;4879457;29;20399;-84
2022/03/04 14:01:00;;;;;;;1.48;0.50;;;-0.30;99.90;;;;;;4879034;29;20403;-85
2022/03/04 14:03:47;;;;;;;2.45;0.50;;;-0.30;99.90;;;;;;4879263;29;20411;-85
2022/03/04 14:06:19;;;;;;;2.47;0.52;;;-0.40;99.90;;;;;;4894536;29;20414;-85
2022/03/04 14:08:46;;;;;;;1.60;0.40;;;-0.30;99.90;;;;;;4879024;29;20502;-85
2022/03/04 14:11:14;;;;;;;1.50;0.50;;;-0.40;99.90;;;;;;4878970;29;20419;-84
2022/03/04 14:13:43;;;;;;;1.30;0.47;;;-0.40;99.90;;;;;;4878995;29;20426;-85
2022/03/04 14:20:25;;;;;;;2.20;0.40;;;-0.30;99.90;;;;;;4878738;29;20486;-83
2022/03/04 14:22:56;;;;;;;1.83;0.60;;;-0.50;99.90;;;;;;4878999;29;20467;-84
2022/03/04 14:25:26;;;;;;;1.45;0.50;;;-0.60;99.90;;;;;;4894128;29;20418;-85
2022/03/04 14:27:54;;;;;;;2.35;0.57;;;-0.70;99.90;;;;;;4878765;29;20650;-84
2022/03/04 14:30:25;;;;;;;2.17;0.40;;;-0.60;99.90;;;;;;4863366;29;20423;-85
2022/03/04 14:32:54;;;;;;;1.48;0.50;;;-0.60;99.90;;;;;;4878903;29;20411;-84
2022/03/04 14:35:25;;;;;;;2.97;0.50;;;-0.60;99.90;;;;;;4878552;29;20790;-84
2022/03/04 14:37:53;;;;;;;1.83;0.60;;;-0.50;99.90;;;;;;4878593;29;20850;-84
2022/03/04 14:40:21;;;;;;;3.08;0.70;;;-0.50;99.90;;;;;;4878273;29;20466;-84
2022/03/04 14:42:51;;;;;;;2.13;0.60;;;-0.50;99.90;;;;;;4893852;29;20506;-85